createdAt,value
2022-10-05T00:01:31.705Z,12.10
2022-10-05T00:04:17.244Z,12.10
2022-10-05T00:06:47.684Z,12.10
2022-10-05T00:09:23.260Z,12.10
2022-10-05T00:11:51.431Z,12.10
2022-10-05T00:14:30.627Z,12.10
2022-10-05T00:16:58.522Z,12.10
2022-10-05T00:19:35.089Z,12.10
2022-10-05T00:22:17.507Z,12.10
2022-10-05T00:24:46.389Z,12.10
2022-10-05T00:27:41.889Z,12.00
2022-10-05T00:30:17.838Z,12.00
2022-10-05T00:32:45.895Z,12.00
2022-10-05T00:35:13.764Z,12.00
2022-10-05T00:37:41.124Z,12.00
2022-10-05T00:40:43.530Z,12.00
2022-10-05T00:43:10.398Z,12.00
2022-10-05T00:46:00.255Z,12.00
2022-10-05T00:48:39.325Z,12.00
2022-10-05T00:51:17.168Z,12.00
2022-10-05T00:53:50.088Z,12.00
2022-10-05T00:56:27.763Z,12.00
2022-10-05T00:59:30.604Z,12.00
2022-10-05T01:02:07.373Z,12.00
2022-10-05T01:04:46.659Z,11.90
2022-10-05T01:07:24.557Z,11.90
2022-10-05T01:10:11.853Z,11.90
2022-10-05T01:12:44.283Z,11.90
2022-10-05T01:15:14.737Z,11.90
2022-10-05T01:18:05.875Z,11.90
2022-10-05T01:20:50.843Z,11.90
2022-10-05T01:23:27.078Z,11.90
2022-10-05T01:26:05.866Z,11.90
2022-10-05T01:28:38.539Z,11.90
2022-10-05T01:31:11.747Z,11.90
2022-10-05T01:33:52.502Z,11.90
2022-10-05T01:36:39.726Z,11.90
2022-10-05T01:39:27.716Z,11.90
2022-10-05T01:42:40.515Z,11.90
2022-10-05T01:45:34.536Z,11.90
2022-10-05T01:48:10.433Z,11.90
2022-10-05T01:50:46.879Z,11.90
2022-10-05T01:53:48.980Z,11.90
2022-10-05T01:56:31.405Z,12.00
2022-10-05T01:59:03.893Z,12.00
2022-10-05T02:01:48.909Z,12.00
2022-10-05T02:04:59.865Z,12.00
2022-10-05T02:07:28.054Z,12.00
2022-10-05T02:10:02.890Z,12.00
2022-10-05T02:12:35.342Z,12.00
2022-10-05T02:15:22.879Z,12.00
2022-10-05T02:17:54.858Z,12.00
2022-10-05T02:20:27.632Z,12.10
2022-10-05T02:23:00.344Z,12.10
2022-10-05T02:25:41.005Z,12.10
2022-10-05T02:28:13.642Z,12.10
2022-10-05T02:31:04.541Z,12.20
2022-10-05T02:33:33.964Z,12.20
2022-10-05T02:36:10.313Z,12.20
2022-10-05T02:39:32.256Z,12.20
2022-10-05T02:41:59.137Z,12.10
2022-10-05T02:44:34.816Z,12.10
2022-10-05T02:47:20.369Z,12.10
2022-10-05T02:49:50.100Z,12.20
2022-10-05T02:52:34.740Z,12.20
2022-10-05T02:55:16.481Z,12.20
2022-10-05T02:57:56.085Z,12.20
2022-10-05T03:00:25.792Z,12.20
2022-10-05T03:03:11.437Z,12.20
2022-10-05T03:05:46.535Z,12.20
2022-10-05T03:08:34.355Z,12.20
2022-10-05T03:11:11.604Z,12.30
2022-10-05T03:13:51.947Z,12.30
2022-10-05T03:16:40.223Z,12.30
2022-10-05T03:19:21.829Z,12.30
2022-10-05T03:21:53.648Z,12.30
2022-10-05T03:24:52.344Z,12.30
2022-10-05T03:27:31.018Z,12.30
2022-10-05T03:30:13.899Z,12.30
2022-10-05T03:33:12.356Z,12.30
2022-10-05T03:35:53.897Z,12.40
2022-10-05T03:38:49.521Z,12.40
2022-10-05T03:41:33.704Z,12.40
2022-10-05T03:44:06.671Z,12.40
2022-10-05T03:46:48.828Z,12.40
2022-10-05T03:49:32.611Z,12.50
2022-10-05T03:52:14.074Z,12.40
2022-10-05T03:54:50.147Z,12.40
2022-10-05T03:57:31.653Z,12.40
2022-10-05T04:00:05.621Z,12.50
2022-10-05T04:02:53.852Z,12.50
2022-10-05T04:05:26.985Z,12.50
2022-10-05T04:08:02.928Z,12.50
2022-10-05T04:11:08.043Z,12.50
2022-10-05T04:13:50.783Z,12.50
2022-10-05T04:16:33.908Z,12.50
2022-10-05T04:19:23.975Z,12.50
2022-10-05T04:22:04.071Z,12.50
2022-10-05T04:24:42.013Z,12.50
2022-10-05T04:27:19.389Z,12.60
2022-10-05T04:29:58.899Z,12.60
2022-10-05T04:32:35.754Z,12.60
2022-10-05T04:35:31.814Z,12.60
2022-10-05T04:37:58.785Z,12.60
2022-10-05T04:40:31.509Z,12.60
2022-10-05T04:43:08.518Z,12.60
2022-10-05T04:45:54.195Z,12.60
2022-10-05T04:48:46.146Z,12.60
2022-10-05T04:51:28.152Z,12.60
2022-10-05T04:54:02.297Z,12.60
2022-10-05T04:57:02.404Z,12.70
2022-10-05T04:59:38.605Z,12.70
2022-10-05T05:02:13.950Z,12.70
2022-10-05T05:05:00.784Z,12.70
2022-10-05T05:07:33.621Z,12.70
2022-10-05T05:10:19.248Z,12.70
2022-10-05T05:13:03.390Z,12.70
2022-10-05T05:15:46.738Z,12.80
2022-10-05T05:18:35.422Z,12.80
2022-10-05T05:21:18.031Z,12.80
2022-10-05T05:24:04.202Z,12.80
2022-10-05T05:27:09.903Z,12.80
2022-10-05T05:29:46.278Z,12.80
2022-10-05T05:32:36.487Z,12.90
2022-10-05T05:35:15.055Z,12.80
2022-10-05T05:38:04.873Z,12.90
2022-10-05T05:40:40.156Z,12.90
2022-10-05T05:43:29.031Z,12.80
2022-10-05T05:46:38.864Z,12.90
2022-10-05T05:49:22.286Z,12.90
2022-10-05T05:51:58.385Z,12.80
2022-10-05T05:54:33.867Z,12.90
2022-10-05T05:57:17.262Z,13.00
2022-10-05T06:00:08.171Z,12.90
2022-10-05T06:03:14.493Z,12.90
2022-10-05T06:05:47.100Z,12.90
2022-10-05T06:08:49.737Z,13.00
2022-10-05T06:11:27.614Z,13.00
2022-10-05T06:14:00.994Z,13.00
2022-10-05T06:16:47.299Z,13.00
2022-10-05T06:19:22.189Z,13.10
2022-10-05T06:22:01.112Z,13.10
2022-10-05T06:24:38.885Z,13.10
2022-10-05T06:27:39.315Z,13.10
2022-10-05T06:30:20.628Z,13.10
2022-10-05T06:32:50.699Z,13.10
2022-10-05T06:35:32.731Z,13.20
2022-10-05T06:38:14.580Z,13.20
2022-10-05T06:40:56.189Z,13.20
2022-10-05T06:43:41.996Z,13.30
2022-10-05T06:46:31.390Z,13.20
2022-10-05T06:49:38.006Z,13.20
2022-10-05T06:52:49.093Z,13.30
2022-10-05T06:55:34.540Z,13.30
2022-10-05T06:58:14.614Z,13.30
2022-10-05T07:00:52.798Z,13.30
2022-10-05T07:03:28.625Z,13.30
2022-10-05T07:06:12.043Z,13.30
2022-10-05T07:08:50.051Z,13.30
2022-10-05T07:11:37.895Z,13.30
2022-10-05T07:14:27.953Z,13.40
2022-10-05T07:17:25.794Z,13.40
2022-10-05T07:20:11.461Z,13.40
2022-10-05T07:22:59.287Z,13.40
2022-10-05T07:25:58.754Z,13.40
2022-10-05T07:28:52.241Z,13.50
2022-10-05T07:31:47.472Z,13.50
2022-10-05T07:34:36.338Z,13.60
2022-10-05T07:37:32.916Z,13.50
2022-10-05T07:40:09.509Z,13.60
2022-10-05T07:43:00.061Z,13.60
2022-10-05T07:46:06.586Z,13.60
2022-10-05T07:48:46.122Z,13.70
2022-10-05T07:51:29.300Z,13.70
2022-10-05T07:54:30.802Z,13.70
2022-10-05T07:57:30.444Z,13.70
2022-10-05T08:00:14.700Z,13.70
2022-10-05T08:03:11.193Z,13.80
2022-10-05T08:05:42.780Z,13.80
2022-10-05T08:08:21.446Z,13.80
2022-10-05T08:10:59.704Z,13.90
2022-10-05T08:13:31.593Z,13.90
2022-10-05T08:16:05.744Z,13.80
2022-10-05T08:19:01.991Z,13.90
2022-10-05T08:21:43.375Z,14.00
2022-10-05T08:24:40.887Z,14.00
2022-10-05T08:27:30.932Z,14.00
2022-10-05T08:30:09.165Z,14.10
2022-10-05T08:33:02.414Z,14.10
2022-10-05T08:35:34.250Z,14.20
2022-10-05T08:38:05.281Z,14.20
2022-10-05T08:40:57.153Z,14.20
2022-10-05T08:43:50.842Z,14.20
2022-10-05T08:46:35.583Z,14.30
2022-10-05T08:49:24.642Z,14.30
2022-10-05T08:52:22.706Z,14.30
2022-10-05T08:55:17.760Z,14.30
2022-10-05T08:57:59.823Z,14.40
2022-10-05T09:00:47.217Z,14.40
2022-10-05T09:03:23.000Z,14.40
2022-10-05T09:06:07.997Z,14.40
2022-10-05T09:08:56.597Z,14.40
2022-10-05T09:11:35.665Z,14.50
2022-10-05T09:14:28.508Z,14.50
2022-10-05T09:17:24.831Z,14.50
2022-10-05T09:20:06.958Z,14.60
2022-10-05T09:22:51.267Z,14.60
2022-10-05T09:25:22.920Z,14.70
2022-10-05T09:27:56.051Z,14.60
2022-10-05T09:30:28.908Z,14.70
2022-10-05T09:33:26.461Z,14.70
2022-10-05T09:36:15.689Z,14.70
2022-10-05T09:38:55.008Z,14.70
2022-10-05T09:41:50.587Z,14.80
2022-10-05T09:44:27.661Z,14.80
2022-10-05T09:46:57.989Z,14.80
2022-10-05T09:49:40.307Z,14.80
2022-10-05T09:52:26.220Z,14.90
2022-10-05T09:55:20.793Z,14.90
2022-10-05T09:57:59.751Z,14.90
2022-10-05T10:00:29.643Z,14.90
2022-10-05T10:03:21.424Z,14.90
2022-10-05T10:06:13.358Z,15.00
2022-10-05T10:08:59.246Z,15.10
2022-10-05T10:11:50.896Z,15.10
2022-10-05T10:15:02.682Z,15.10
2022-10-05T10:17:48.658Z,15.10
2022-10-05T10:21:03.378Z,15.10
2022-10-05T10:24:00.429Z,15.10
2022-10-05T10:27:11.941Z,15.10
2022-10-05T10:29:58.517Z,15.10
2022-10-05T10:32:43.715Z,15.20
2022-10-05T10:38:19.967Z,15.20
2022-10-05T10:41:19.572Z,15.10
2022-10-05T10:44:05.167Z,15.10
2022-10-05T10:46:32.144Z,15.20
2022-10-05T10:49:16.942Z,15.20
2022-10-05T10:52:16.333Z,15.20
2022-10-05T10:55:14.358Z,15.20
2022-10-05T10:58:03.058Z,15.20
2022-10-05T11:00:44.980Z,15.30
2022-10-05T11:03:41.425Z,15.30
2022-10-05T11:06:45.236Z,15.40
2022-10-05T11:09:53.958Z,15.40
2022-10-05T11:12:34.419Z,15.50
2022-10-05T11:15:20.668Z,15.50
2022-10-05T11:18:30.899Z,15.50
2022-10-05T11:21:07.630Z,15.60
2022-10-05T11:23:38.754Z,15.60
2022-10-05T11:26:18.171Z,15.70
2022-10-05T11:29:09.355Z,15.70
2022-10-05T11:31:45.190Z,15.70
2022-10-05T11:34:43.130Z,15.70
2022-10-05T11:37:29.248Z,15.70
2022-10-05T11:40:35.087Z,15.80
2022-10-05T11:43:17.065Z,15.80
2022-10-05T11:46:16.931Z,15.80
2022-10-05T11:48:53.489Z,15.80
2022-10-05T11:51:44.803Z,15.80
2022-10-05T11:54:17.844Z,15.90
2022-10-05T11:56:56.476Z,15.90
2022-10-05T11:59:49.341Z,15.90
2022-10-05T12:02:39.969Z,16.00
2022-10-05T12:05:50.094Z,16.00
2022-10-05T12:08:23.322Z,16.00
2022-10-05T12:11:03.142Z,16.00
2022-10-05T12:13:55.048Z,16.10
2022-10-05T12:16:45.590Z,16.10
2022-10-05T12:19:28.762Z,16.10
2022-10-05T12:22:15.611Z,16.20
2022-10-05T12:25:17.668Z,16.20
2022-10-05T12:27:47.447Z,16.10
2022-10-05T12:30:32.431Z,16.10
2022-10-05T12:33:33.605Z,16.00
2022-10-05T12:36:19.671Z,16.10
2022-10-05T12:39:05.356Z,16.10
2022-10-05T12:41:57.688Z,16.10
2022-10-05T12:44:30.926Z,16.10
2022-10-05T12:47:25.624Z,16.10
2022-10-05T12:50:13.145Z,16.10
2022-10-05T12:53:16.737Z,16.10
2022-10-05T12:55:43.980Z,16.10
2022-10-05T12:58:24.621Z,16.10
2022-10-05T13:01:18.046Z,16.00
2022-10-05T13:04:25.557Z,16.00
2022-10-05T13:07:13.988Z,15.90
2022-10-05T13:09:59.949Z,16.00
2022-10-05T13:12:54.451Z,16.00
2022-10-05T13:15:32.629Z,15.90
2022-10-05T13:18:14.608Z,15.90
2022-10-05T13:21:16.793Z,15.80
2022-10-05T13:23:57.644Z,15.80
2022-10-05T13:26:46.240Z,15.60
2022-10-05T13:29:37.929Z,15.50
2022-10-05T13:32:48.544Z,15.50
2022-10-05T13:35:44.995Z,15.50
2022-10-05T13:38:27.753Z,15.40
2022-10-05T13:41:36.032Z,15.40
2022-10-05T13:44:21.532Z,15.40
2022-10-05T13:47:17.017Z,15.40
2022-10-05T13:50:00.054Z,15.40
2022-10-05T13:52:54.150Z,15.30
2022-10-05T13:55:35.430Z,15.30
2022-10-05T13:58:08.476Z,15.30
2022-10-05T14:00:46.759Z,15.30
2022-10-05T14:03:37.611Z,15.40
2022-10-05T14:06:27.815Z,15.30
2022-10-05T14:08:55.065Z,15.40
2022-10-05T14:11:35.895Z,15.30
2022-10-05T14:14:26.691Z,15.40
2022-10-05T14:16:56.922Z,15.40
2022-10-05T14:19:23.830Z,15.40
2022-10-05T14:22:01.970Z,15.50
2022-10-05T14:24:46.130Z,15.50
2022-10-05T14:27:27.519Z,15.50
2022-10-05T14:30:09.579Z,15.50
2022-10-05T14:33:00.640Z,15.50
2022-10-05T14:35:31.595Z,15.50
2022-10-05T14:38:16.046Z,15.60
2022-10-05T14:40:43.151Z,15.60
2022-10-05T14:43:16.738Z,15.50
2022-10-05T14:46:27.005Z,15.50
2022-10-05T14:49:32.927Z,15.60
2022-10-05T14:52:03.895Z,15.70
2022-10-05T14:55:01.900Z,15.70
2022-10-05T14:57:44.377Z,15.70
2022-10-05T15:00:19.210Z,15.70
2022-10-05T15:03:01.575Z,15.70
2022-10-05T15:05:34.157Z,15.80
2022-10-05T15:08:39.230Z,15.80
2022-10-05T15:11:24.791Z,15.70
2022-10-05T15:13:56.075Z,15.80
2022-10-05T15:16:34.855Z,15.80
2022-10-05T15:19:27.525Z,15.80
2022-10-05T15:22:15.845Z,15.80
2022-10-05T15:24:56.040Z,15.80
2022-10-05T15:27:42.896Z,15.80
2022-10-05T15:30:18.245Z,15.90
2022-10-05T15:33:06.057Z,15.90
2022-10-05T15:35:36.114Z,15.90
2022-10-05T15:38:21.596Z,15.90
2022-10-05T15:41:18.224Z,15.90
2022-10-05T15:44:03.204Z,15.90
2022-10-05T15:46:58.600Z,15.90
2022-10-05T15:50:04.781Z,15.90
2022-10-05T15:52:57.507Z,15.90
2022-10-05T15:56:00.991Z,15.90
2022-10-05T15:58:31.217Z,15.80
2022-10-05T16:01:22.941Z,15.80
2022-10-05T16:04:28.833Z,15.80
2022-10-05T16:07:27.796Z,15.80
2022-10-05T16:10:15.648Z,15.80
2022-10-05T16:13:15.962Z,15.80
2022-10-05T16:16:21.268Z,15.80
2022-10-05T16:19:04.784Z,15.70
2022-10-05T16:21:54.841Z,15.70
2022-10-05T16:28:21.224Z,15.60
2022-10-05T16:31:09.984Z,15.60
2022-10-05T16:34:17.262Z,15.60
2022-10-05T16:37:26.682Z,15.60
2022-10-05T16:40:06.862Z,15.50
2022-10-05T16:42:50.112Z,15.60
2022-10-05T16:45:47.243Z,15.50
2022-10-05T16:48:14.702Z,15.50
2022-10-05T16:51:12.679Z,15.50
2022-10-05T16:53:48.570Z,15.40
2022-10-05T16:56:19.758Z,15.40
2022-10-05T16:58:53.058Z,15.30
2022-10-05T17:01:42.530Z,15.30
2022-10-05T17:04:47.694Z,15.30
2022-10-05T17:07:20.649Z,15.40
2022-10-05T17:10:23.989Z,15.30
2022-10-05T17:13:14.015Z,15.30
2022-10-05T17:16:08.336Z,15.30
2022-10-05T17:18:54.033Z,15.30
2022-10-05T17:21:37.510Z,15.30
2022-10-05T17:24:25.488Z,15.30
2022-10-05T17:27:21.741Z,15.20
2022-10-05T17:29:54.017Z,15.20
2022-10-05T17:32:33.866Z,15.20
2022-10-05T17:35:04.167Z,15.20
2022-10-05T17:37:32.071Z,15.20
2022-10-05T17:39:59.209Z,15.20
2022-10-05T17:42:41.694Z,15.10
2022-10-05T17:45:13.967Z,15.10
2022-10-05T17:48:04.164Z,15.10
2022-10-05T17:51:07.393Z,15.10
2022-10-05T17:53:57.393Z,15.20
2022-10-05T17:56:24.820Z,15.10
2022-10-05T17:58:54.735Z,15.10
2022-10-05T18:01:45.427Z,15.20
2022-10-05T18:04:13.093Z,15.20
2022-10-05T18:06:47.791Z,15.20
2022-10-05T18:09:17.716Z,15.10
2022-10-05T18:11:50.124Z,15.10
2022-10-05T18:14:25.856Z,15.10
2022-10-05T18:17:13.878Z,15.10
2022-10-05T18:19:41.548Z,15.20
2022-10-05T18:22:17.950Z,15.20
2022-10-05T18:25:07.109Z,15.20
2022-10-05T18:28:04.008Z,15.30
2022-10-05T18:30:42.217Z,15.30
2022-10-05T18:33:17.876Z,15.30
2022-10-05T18:36:07.255Z,15.30
2022-10-05T18:39:18.856Z,15.30
2022-10-05T18:42:30.483Z,15.40
2022-10-05T18:46:00.397Z,15.50
2022-10-05T18:48:39.406Z,15.50
2022-10-05T18:51:51.996Z,15.50
2022-10-05T18:54:25.239Z,15.50
2022-10-05T18:56:58.949Z,15.60
2022-10-05T18:59:27.781Z,15.50
2022-10-05T19:02:12.003Z,15.50
2022-10-05T19:04:51.840Z,15.50
2022-10-05T19:07:34.498Z,15.60
2022-10-05T19:10:09.676Z,15.50
2022-10-05T19:13:13.834Z,15.50
2022-10-05T19:15:59.561Z,15.40
2022-10-05T19:18:56.016Z,15.40
2022-10-05T19:21:50.598Z,15.40
2022-10-05T19:24:33.136Z,15.40
2022-10-05T19:27:06.996Z,15.40
2022-10-05T19:29:56.277Z,15.40
2022-10-05T19:32:41.353Z,15.50
2022-10-05T19:35:08.314Z,15.40
2022-10-05T19:37:48.853Z,15.50
2022-10-05T19:40:35.358Z,15.50
2022-10-05T19:43:23.951Z,15.50
2022-10-05T19:46:19.233Z,15.50
2022-10-05T19:48:49.899Z,15.50
2022-10-05T19:51:25.832Z,15.60
2022-10-05T19:53:56.048Z,15.50
2022-10-05T19:56:25.666Z,15.60
2022-10-05T19:58:57.458Z,15.50
2022-10-05T20:01:37.009Z,15.60
2022-10-05T20:04:05.626Z,15.50
2022-10-05T20:06:33.180Z,15.50
2022-10-05T20:09:18.130Z,15.50
2022-10-05T20:11:52.761Z,15.50
2022-10-05T20:14:34.377Z,15.50
2022-10-05T20:17:47.927Z,15.60
2022-10-05T20:20:47.145Z,15.60
2022-10-05T20:23:24.521Z,15.60
2022-10-05T20:26:10.921Z,15.70
2022-10-05T20:28:38.337Z,15.60
2022-10-05T20:31:08.481Z,15.60
2022-10-05T20:33:35.533Z,15.60
2022-10-05T20:36:03.747Z,15.60
2022-10-05T20:38:33.693Z,15.50
2022-10-05T20:41:03.311Z,15.50
2022-10-05T20:43:30.195Z,15.50
2022-10-05T20:45:57.331Z,15.50
2022-10-05T20:48:26.543Z,15.50
2022-10-05T20:50:54.371Z,15.50
2022-10-05T20:53:21.212Z,15.50
2022-10-05T20:56:03.043Z,15.50
2022-10-05T20:58:30.670Z,15.50
2022-10-05T21:01:16.964Z,15.50
2022-10-05T21:03:44.022Z,15.50
2022-10-05T21:06:11.317Z,15.50
2022-10-05T21:08:38.521Z,15.50
2022-10-05T21:11:09.122Z,15.50
2022-10-05T21:13:38.623Z,15.50
2022-10-05T21:16:07.873Z,15.50
2022-10-05T21:18:34.823Z,15.50
2022-10-05T21:21:02.487Z,15.50
2022-10-05T21:23:29.719Z,15.50
2022-10-05T21:25:56.835Z,15.50
2022-10-05T21:28:23.778Z,15.50
2022-10-05T21:30:50.880Z,15.50
2022-10-05T21:33:17.903Z,15.50
2022-10-05T21:35:44.956Z,15.50
2022-10-05T21:38:12.253Z,15.50
2022-10-05T21:40:39.259Z,15.50
2022-10-05T21:43:07.347Z,15.50
2022-10-05T21:45:34.441Z,15.50
2022-10-05T21:48:01.552Z,15.40
2022-10-05T21:50:31.044Z,15.40
2022-10-05T21:53:00.908Z,15.40
2022-10-05T21:55:28.214Z,15.40
2022-10-05T21:57:59.767Z,15.50
2022-10-05T22:00:27.023Z,15.40
2022-10-05T22:02:55.319Z,15.40
2022-10-05T22:05:22.672Z,15.40
2022-10-05T22:07:49.899Z,15.40
2022-10-05T22:10:17.199Z,15.40
2022-10-05T22:12:46.362Z,15.40
2022-10-05T22:15:16.247Z,15.40
2022-10-05T22:17:43.688Z,15.40
2022-10-05T22:20:14.559Z,15.40
2022-10-05T22:22:41.611Z,15.40
2022-10-05T22:25:08.796Z,15.30
2022-10-05T22:27:36.189Z,15.40
2022-10-05T22:30:05.879Z,15.30
2022-10-05T22:32:32.914Z,15.30
2022-10-05T22:34:59.777Z,15.40
2022-10-05T22:37:27.001Z,15.30
2022-10-05T22:39:55.313Z,15.30
2022-10-05T22:42:23.065Z,15.30
2022-10-05T22:44:50.226Z,15.30
2022-10-05T22:47:17.520Z,15.40
2022-10-05T22:49:44.527Z,15.30
2022-10-05T22:52:11.809Z,15.30
2022-10-05T22:54:38.891Z,15.30
2022-10-05T22:57:05.899Z,15.30
2022-10-05T22:59:32.882Z,15.30
2022-10-05T23:02:00.175Z,15.30
2022-10-05T23:04:28.234Z,15.30
2022-10-05T23:06:55.334Z,15.30
2022-10-05T23:09:22.566Z,15.30
2022-10-05T23:11:52.186Z,15.30
2022-10-05T23:14:19.837Z,15.30
2022-10-05T23:16:48.146Z,15.30
2022-10-05T23:19:15.713Z,15.30
2022-10-05T23:21:43.159Z,15.30
2022-10-05T23:24:10.305Z,15.30
2022-10-05T23:26:37.238Z,15.30
2022-10-05T23:29:04.765Z,15.30
2022-10-05T23:31:33.685Z,15.30
2022-10-05T23:34:01.270Z,15.30
2022-10-05T23:36:32.420Z,15.30
2022-10-05T23:39:06.260Z,15.30
2022-10-05T23:41:33.197Z,15.30
2022-10-05T23:44:00.320Z,15.30
2022-10-05T23:46:27.483Z,15.30
2022-10-05T23:48:54.687Z,15.30
2022-10-05T23:51:21.763Z,15.30
2022-10-05T23:53:48.667Z,15.30
2022-10-05T23:56:16.102Z,15.30
2022-10-05T23:58:43.297Z,15.30
